Time;durP1;ratioP1;P1;durP2;ratioP2;P2;SDS_P1;SDS_P2;PMS_P1;PMS_P2;Temp;Humidity;BMP_temperature;BMP_pressure;BME280_temperature;BME280_humidity;BME280_pressure;Samples;Min_cycle;Max_cycle;Signal;HPM_P1;HPM_P2
2021/08/13 00:01:49;;;;;;;12.00;8.00;;;18.40;99.90;;;;;;5013806;28;20181;-72
2021/08/13 00:04:15;;;;;;;10.00;7.63;;;18.40;99.90;;;;;;5013175;28;20204;-72
2021/08/13 00:06:41;;;;;;;6.87;6.10;;;18.40;99.90;;;;;;5014002;28;20160;-72
2021/08/13 00:09:08;;;;;;;12.83;8.67;;;18.40;99.90;;;;;;5013791;28;20154;-72
2021/08/13 00:11:36;;;;;;;9.20;8.07;;;18.30;99.90;;;;;;5013629;28;20393;-72
2021/08/13 00:14:02;;;;;;;10.20;6.77;;;18.30;99.90;;;;;;5019838;28;20428;-72
2021/08/13 00:16:28;;;;;;;10.43;7.63;;;18.30;99.90;;;;;;5033446;28;20407;-72
2021/08/13 00:18:53;;;;;;;8.93;7.43;;;18.30;99.90;;;;;;5033426;28;20400;-72
2021/08/13 00:21:19;;;;;;;9.50;6.93;;;18.20;99.90;;;;;;5033246;28;20215;-72
2021/08/13 00:23:45;;;;;;;10.80;7.90;;;18.20;99.90;;;;;;5033281;28;20521;-72
2021/08/13 00:26:10;;;;;;;9.23;7.97;;;18.20;99.90;;;;;;5033193;28;20560;-72
2021/08/13 00:28:36;;;;;;;9.67;7.27;;;18.20;99.90;;;;;;5033232;28;20157;-72
2021/08/13 00:31:01;;;;;;;7.83;7.03;;;18.20;99.90;;;;;;5031436;28;20267;-72
2021/08/13 00:33:27;;;;;;;9.23;7.70;;;18.20;99.90;;;;;;5033107;28;20200;-72
2021/08/13 00:35:52;;;;;;;10.90;7.90;;;18.10;99.90;;;;;;5033225;28;20161;-72
2021/08/13 00:38:18;;;;;;;9.67;8.20;;;18.10;99.90;;;;;;5033055;28;20647;-72
2021/08/13 00:40:43;;;;;;;10.80;8.50;;;18.10;99.90;;;;;;5032868;28;20204;-72
2021/08/13 00:43:09;;;;;;;8.10;7.27;;;18.00;99.90;;;;;;5032951;28;20210;-72
2021/08/13 00:45:34;;;;;;;9.80;7.33;;;18.10;99.90;;;;;;5032924;28;20157;-72
2021/08/13 00:48:00;;;;;;;8.57;7.67;;;18.10;99.90;;;;;;5031220;28;20204;-72
2021/08/13 00:50:25;;;;;;;8.20;6.60;;;18.00;99.90;;;;;;5032953;28;20207;-72
2021/08/13 00:52:51;;;;;;;11.03;7.70;;;18.00;99.90;;;;;;5032704;28;20207;-72
2021/08/13 00:55:19;;;;;;;8.50;6.60;;;18.00;99.90;;;;;;5032786;28;20208;-72
2021/08/13 00:57:45;;;;;;;9.70;7.33;;;18.00;99.90;;;;;;5032775;28;20446;-72
2021/08/13 01:00:10;;;;;;;10.70;7.47;;;17.90;99.90;;;;;;5032666;28;20435;-72
2021/08/13 01:02:36;;;;;;;9.07;7.30;;;18.00;99.90;;;;;;5032860;28;20733;-72
2021/08/13 01:05:02;;;;;;;10.33;8.60;;;17.90;99.90;;;;;;5031140;28;20407;-72
2021/08/13 01:07:27;;;;;;;10.83;7.13;;;17.90;99.90;;;;;;5032533;28;20160;-72
2021/08/13 01:09:53;;;;;;;10.53;8.20;;;17.90;99.90;;;;;;5032745;28;20164;-72
2021/08/13 01:12:28;;;;;;;9.23;7.37;;;17.90;99.90;;;;;;5032547;28;20200;-72
2021/08/13 01:17:44;;;;;;;9.83;6.83;;;17.90;99.90;;;;;;5069862;28;20633;-73
2021/08/13 01:25:30;;;;;;;10.53;7.63;;;17.80;99.90;;;;;;5069871;28;20649;-72
2021/08/13 01:27:57;;;;;;;8.63;7.60;;;17.80;99.90;;;;;;5069786;28;20465;-72
2021/08/13 01:30:26;;;;;;;8.57;7.10;;;17.80;99.90;;;;;;5069801;28;20390;-72
2021/08/13 01:35:40;;;;;;;12.03;8.40;;;17.70;99.90;;;;;;5070214;28;20566;-73
2021/08/13 01:38:11;;;;;;;10.10;8.60;;;17.70;99.90;;;;;;5069668;28;20390;-73
2021/08/13 01:40:40;;;;;;;10.53;8.13;;;17.70;99.90;;;;;;5050210;28;20414;-73
2021/08/13 01:43:07;;;;;;;9.23;7.90;;;17.70;99.90;;;;;;5049844;28;20756;-73
2021/08/13 01:45:35;;;;;;;8.60;7.27;;;17.70;99.90;;;;;;5049620;28;20383;-73
2021/08/13 01:48:04;;;;;;;10.30;7.20;;;17.70;99.90;;;;;;5049702;28;20967;-73
2021/08/13 01:50:29;;;;;;;9.70;7.77;;;17.70;99.90;;;;;;5049811;28;20457;-73
2021/08/13 01:52:58;;;;;;;9.13;7.40;;;17.70;99.90;;;;;;5049595;28;20395;-73
2021/08/13 01:55:25;;;;;;;11.43;8.70;;;17.70;99.90;;;;;;5050236;28;20653;-73
2021/08/13 01:57:50;;;;;;;12.30;8.50;;;17.70;99.90;;;;;;5050070;28;20858;-73
2021/08/13 02:00:19;;;;;;;10.93;8.20;;;17.60;99.90;;;;;;5049388;28;20399;-73
2021/08/13 02:02:46;;;;;;;9.20;7.47;;;17.70;99.90;;;;;;5049780;28;20522;-73
2021/08/13 02:05:15;;;;;;;14.10;8.23;;;17.60;99.90;;;;;;5050111;28;20552;-73
2021/08/13 02:07:41;;;;;;;12.80;8.90;;;17.60;99.90;;;;;;5049357;28;20410;-73
2021/08/13 02:10:09;;;;;;;10.40;7.73;;;17.60;99.90;;;;;;5049128;28;20881;-73
2021/08/13 02:12:35;;;;;;;10.83;8.07;;;17.60;99.90;;;;;;5052827;28;20417;-73
2021/08/13 02:15:01;;;;;;;9.77;8.07;;;17.60;99.90;;;;;;5052262;28;20813;-73
2021/08/13 02:17:29;;;;;;;8.30;7.33;;;17.50;99.90;;;;;;5049440;28;20165;-73
2021/08/13 02:20:05;;;;;;;8.30;7.07;;;17.50;99.90;;;;;;5049286;28;20473;-73
2021/08/13 02:22:30;;;;;;;15.03;8.10;;;17.50;99.90;;;;;;5049196;28;20397;-73
2021/08/13 02:24:56;;;;;;;9.40;6.77;;;17.50;99.90;;;;;;5048950;28;20383;-73
2021/08/13 02:27:22;;;;;;;7.53;6.73;;;17.40;99.90;;;;;;5049041;28;20160;-73
2021/08/13 02:29:48;;;;;;;9.70;7.50;;;17.50;99.90;;;;;;5049889;28;20275;-73
2021/08/13 02:32:14;;;;;;;11.30;7.60;;;17.50;99.90;;;;;;5049000;28;20510;-73
2021/08/13 02:34:40;;;;;;;9.70;7.37;;;17.50;99.90;;;;;;5048764;28;20203;-73
2021/08/13 02:37:29;;;;;;;8.70;7.20;;;17.50;99.90;;;;;;5049487;28;20418;-73
2021/08/13 02:40:02;;;;;;;11.17;8.07;;;17.50;99.90;;;;;;5047491;28;20853;-73
2021/08/13 02:42:50;;;;;;;10.87;8.13;;;17.40;99.90;;;;;;5048790;28;20417;-73
2021/08/13 02:45:20;;;;;;;8.30;7.07;;;17.50;99.90;;;;;;5043904;28;20404;-73
2021/08/13 02:47:47;;;;;;;9.63;7.30;;;17.40;99.90;;;;;;5036790;28;20828;-73
2021/08/13 02:50:15;;;;;;;8.60;7.70;;;17.40;99.90;;;;;;5035153;28;20415;-73
2021/08/13 02:52:51;;;;;;;8.23;7.40;;;17.40;99.90;;;;;;5035261;28;20403;-73
2021/08/13 02:55:23;;;;;;;9.47;7.40;;;17.40;99.90;;;;;;5035199;28;20501;-73
2021/08/13 02:57:53;;;;;;;13.33;7.47;;;17.40;99.90;;;;;;5035908;28;20387;-73
2021/08/13 03:00:19;;;;;;;8.10;7.17;;;17.40;99.90;;;;;;5035201;28;20396;-73
2021/08/13 03:02:48;;;;;;;7.77;6.20;;;17.40;99.90;;;;;;5035246;28;20388;-73
2021/08/13 03:05:15;;;;;;;8.60;7.40;;;17.30;99.90;;;;;;5036102;28;20429;-73
2021/08/13 03:07:40;;;;;;;12.60;7.00;;;17.30;99.90;;;;;;5035046;28;20392;-73
2021/08/13 03:10:08;;;;;;;10.80;8.67;;;17.30;99.90;;;;;;5034860;28;20400;-73
2021/08/13 03:12:37;;;;;;;9.70;8.10;;;17.30;99.90;;;;;;5035134;28;20223;-73
2021/08/13 03:15:04;;;;;;;9.37;8.47;;;17.40;99.90;;;;;;5035337;28;20810;-72
2021/08/13 03:17:30;;;;;;;7.60;6.80;;;17.30;99.90;;;;;;5035001;28;20384;-72
2021/08/13 03:19:57;;;;;;;9.20;7.17;;;17.30;99.90;;;;;;5034774;28;20392;-72
2021/08/13 03:22:23;;;;;;;9.53;7.40;;;17.30;99.90;;;;;;5035890;28;20541;-72
2021/08/13 03:24:49;;;;;;;11.57;8.30;;;17.30;99.90;;;;;;5034711;28;21130;-73
2021/08/13 03:27:17;;;;;;;13.30;8.13;;;17.40;99.90;;;;;;5034746;28;20475;-73
2021/08/13 03:29:44;;;;;;;9.90;7.50;;;17.30;99.90;;;;;;5034968;28;20388;-73
2021/08/13 03:32:10;;;;;;;9.63;8.60;;;17.40;99.90;;;;;;5034712;28;20424;-72
2021/08/13 03:34:35;;;;;;;11.97;8.47;;;17.40;99.90;;;;;;5034604;28;20477;-72
2021/08/13 03:37:02;;;;;;;10.70;8.67;;;17.30;99.90;;;;;;5034511;28;20684;-72
2021/08/13 03:39:27;;;;;;;12.00;8.77;;;17.30;99.90;;;;;;5035507;28;20180;-72
2021/08/13 03:41:54;;;;;;;11.87;7.80;;;17.30;99.90;;;;;;5034200;28;20411;-72
2021/08/13 03:44:20;;;;;;;8.40;7.50;;;17.30;99.90;;;;;;5034754;28;20188;-72
2021/08/13 03:46:46;;;;;;;10.57;9.17;;;17.20;99.90;;;;;;5034383;28;20909;-72
2021/08/13 03:49:11;;;;;;;8.37;6.53;;;17.30;99.90;;;;;;5034340;28;20260;-72
2021/08/13 03:51:37;;;;;;;11.57;7.30;;;17.20;99.90;;;;;;5034045;28;20171;-72
2021/08/13 03:54:02;;;;;;;8.03;6.30;;;17.20;99.90;;;;;;5034021;28;20186;-73
2021/08/13 03:56:28;;;;;;;8.40;7.43;;;17.20;99.90;;;;;;5035322;28;20200;-73
2021/08/13 03:58:54;;;;;;;9.73;7.87;;;17.20;99.90;;;;;;5033484;28;20153;-73
2021/08/13 04:01:19;;;;;;;9.30;7.43;;;17.20;99.90;;;;;;5034124;28;20161;-73
2021/08/13 04:03:45;;;;;;;9.53;6.63;;;17.20;99.90;;;;;;5033880;28;20167;-73
2021/08/13 04:06:10;;;;;;;11.03;7.10;;;17.10;99.90;;;;;;5034043;28;20168;-73
2021/08/13 04:08:36;;;;;;;10.87;8.30;;;17.10;99.90;;;;;;5034172;28;20215;-72
2021/08/13 04:11:01;;;;;;;10.30;8.60;;;17.10;99.90;;;;;;5034182;28;20173;-73
2021/08/13 04:13:27;;;;;;;11.17;7.83;;;17.10;99.90;;;;;;5040361;28;20211;-73
2021/08/13 04:15:52;;;;;;;9.50;8.00;;;17.10;99.90;;;;;;5033960;28;20200;-72
2021/08/13 04:18:18;;;;;;;10.00;7.70;;;17.10;99.90;;;;;;5033774;28;20272;-72
2021/08/13 04:20:44;;;;;;;10.00;7.63;;;17.00;99.90;;;;;;5033612;28;20159;-72
2021/08/13 04:23:09;;;;;;;9.80;8.73;;;17.00;99.90;;;;;;5033459;28;20153;-72
2021/08/13 04:25:35;;;;;;;9.70;7.70;;;17.00;99.90;;;;;;5034049;28;20160;-72
2021/08/13 04:28:00;;;;;;;12.57;8.50;;;17.00;99.90;;;;;;5033298;28;20169;-73
2021/08/13 04:30:26;;;;;;;11.70;9.27;;;17.00;99.90;;;;;;5034623;28;20181;-73
2021/08/13 04:32:51;;;;;;;13.10;10.53;;;17.00;99.90;;;;;;5033137;28;20199;-73
2021/08/13 04:35:17;;;;;;;11.50;9.30;;;17.00;99.90;;;;;;5033428;28;20577;-73
2021/08/13 04:37:43;;;;;;;11.20;9.53;;;17.00;99.90;;;;;;5033254;28;20183;-72
2021/08/13 04:40:09;;;;;;;10.07;8.37;;;17.10;99.90;;;;;;5033449;28;20153;-72
2021/08/13 04:42:35;;;;;;;8.60;7.70;;;17.10;99.90;;;;;;5033503;28;20707;-73
2021/08/13 04:45:00;;;;;;;8.87;7.47;;;17.10;99.90;;;;;;5033433;28;20412;-73
2021/08/13 04:47:26;;;;;;;12.40;8.20;;;17.10;99.90;;;;;;5034535;28;20211;-73
2021/08/13 04:49:51;;;;;;;11.70;8.77;;;17.20;99.90;;;;;;5034243;28;20208;-73
2021/08/13 04:52:18;;;;;;;11.97;8.30;;;17.20;99.90;;;;;;5053160;28;20168;-73
2021/08/13 04:54:47;;;;;;;11.80;9.13;;;17.20;99.90;;;;;;5051316;28;20223;-73
2021/08/13 04:57:12;;;;;;;11.03;8.57;;;17.20;99.90;;;;;;5052610;28;20439;-73
2021/08/13 04:59:38;;;;;;;9.97;8.50;;;17.30;99.90;;;;;;5039404;28;20423;-73
2021/08/13 05:02:03;;;;;;;10.40;8.97;;;17.30;99.90;;;;;;5038228;28;20165;-73
2021/08/13 05:04:29;;;;;;;11.20;9.50;;;17.40;99.90;;;;;;5034200;28;20192;-73
2021/08/13 05:06:54;;;;;;;12.60;9.33;;;17.40;99.90;;;;;;5042405;28;20251;-73
2021/08/13 05:09:20;;;;;;;12.33;9.40;;;17.40;99.90;;;;;;5040689;28;20187;-73
2021/08/13 05:11:46;;;;;;;11.73;10.30;;;17.40;99.90;;;;;;5035538;28;20173;-73
2021/08/13 05:14:11;;;;;;;9.97;8.90;;;17.40;99.90;;;;;;5032442;28;20540;-73
2021/08/13 05:16:37;;;;;;;11.73;8.83;;;17.40;99.90;;;;;;5034011;28;20180;-74
2021/08/13 05:19:02;;;;;;;9.47;7.80;;;17.40;99.90;;;;;;5052586;28;20628;-73
2021/08/13 05:21:28;;;;;;;9.70;7.33;;;17.40;99.90;;;;;;5035267;28;20666;-73
2021/08/13 05:23:53;;;;;;;11.20;8.50;;;17.50;99.90;;;;;;5040378;28;20179;-73
2021/08/13 05:26:19;;;;;;;12.93;7.77;;;17.50;99.90;;;;;;5031799;28;20189;-73
2021/08/13 05:28:45;;;;;;;10.90;8.57;;;17.50;99.90;;;;;;5033623;28;20184;-73
2021/08/13 05:31:10;;;;;;;10.67;8.33;;;17.60;99.90;;;;;;5037043;28;20408;-74
2021/08/13 05:33:36;;;;;;;11.77;9.20;;;17.70;99.90;;;;;;5032175;28;20200;-72
2021/08/13 05:36:02;;;;;;;10.10;8.90;;;17.80;99.90;;;;;;5032689;28;20165;-72
2021/08/13 05:38:27;;;;;;;10.20;8.70;;;17.80;99.90;;;;;;5036466;28;20276;-71
2021/08/13 05:40:53;;;;;;;11.77;8.43;;;17.90;99.90;;;;;;5031951;28;20547;-71
2021/08/13 05:43:18;;;;;;;10.80;7.40;;;18.00;99.90;;;;;;5039736;28;20622;-71
2021/08/13 05:45:44;;;;;;;10.40;8.07;;;18.00;99.90;;;;;;5033468;28;20237;-71
2021/08/13 05:48:09;;;;;;;13.43;9.00;;;18.10;99.90;;;;;;5052067;28;20161;-71
2021/08/13 05:50:35;;;;;;;11.83;8.33;;;18.10;99.90;;;;;;5041284;28;20263;-71
2021/08/13 05:53:01;;;;;;;11.20;8.10;;;18.10;99.90;;;;;;5033609;28;20169;-71
2021/08/13 05:55:27;;;;;;;10.50;7.70;;;18.20;99.90;;;;;;5045490;28;20574;-71
2021/08/13 05:57:52;;;;;;;9.70;8.30;;;18.30;99.90;;;;;;5052337;28;20543;-71
2021/08/13 06:00:18;;;;;;;13.80;9.10;;;18.40;99.90;;;;;;5051994;28;20168;-71
2021/08/13 06:02:53;;;;;;;9.73;8.70;;;18.40;99.90;;;;;;5051940;28;20167;-71
2021/08/13 06:05:19;;;;;;;9.17;7.70;;;18.50;99.90;;;;;;5052442;28;20190;-73
2021/08/13 06:07:44;;;;;;;15.60;9.60;;;18.60;99.90;;;;;;5032703;28;20827;-72
2021/08/13 06:10:10;;;;;;;11.77;8.80;;;18.70;99.90;;;;;;5032545;28;20208;-73
2021/08/13 06:12:36;;;;;;;10.13;8.40;;;18.70;99.90;;;;;;5032325;28;20219;-73
2021/08/13 06:15:01;;;;;;;9.40;7.47;;;18.80;99.90;;;;;;5032191;28;20192;-72
2021/08/13 06:17:27;;;;;;;13.90;8.70;;;18.90;99.90;;;;;;5032284;28;20165;-72
2021/08/13 06:19:52;;;;;;;9.73;7.60;;;19.00;99.90;;;;;;5052039;28;20257;-72
2021/08/13 06:22:18;;;;;;;10.10;9.00;;;19.10;99.90;;;;;;5055465;28;20164;-72
2021/08/13 06:24:43;;;;;;;10.93;8.57;;;19.20;99.90;;;;;;5053128;28;20168;-72
2021/08/13 06:27:09;;;;;;;12.77;8.70;;;19.40;99.90;;;;;;5042828;28;20179;-72
2021/08/13 06:29:35;;;;;;;8.90;7.20;;;19.50;99.90;;;;;;5037555;28;20184;-72
2021/08/13 06:32:00;;;;;;;12.37;7.67;;;19.60;99.90;;;;;;5035943;28;20215;-72
2021/08/13 06:34:26;;;;;;;9.30;7.40;;;19.70;99.90;;;;;;5039710;28;20281;-72
2021/08/13 06:36:51;;;;;;;10.03;8.83;;;19.80;99.90;;;;;;5049935;28;20161;-72
2021/08/13 06:39:17;;;;;;;8.97;8.07;;;19.90;99.90;;;;;;5045833;28;20176;-72
2021/08/13 06:41:42;;;;;;;13.00;9.07;;;20.00;99.90;;;;;;5044654;28;20164;-72
2021/08/13 06:44:08;;;;;;;10.80;8.00;;;20.10;99.90;;;;;;5037867;28;20173;-72
2021/08/13 06:46:34;;;;;;;10.57;7.33;;;20.30;99.90;;;;;;5048272;28;20181;-72
2021/08/13 06:49:00;;;;;;;9.73;7.10;;;20.40;99.90;;;;;;5035040;28;20187;-72
2021/08/13 06:51:25;;;;;;;9.80;7.90;;;20.50;99.90;;;;;;5036704;28;20649;-72
2021/08/13 06:53:51;;;;;;;9.00;7.63;;;20.70;99.90;;;;;;5035688;28;20819;-72
2021/08/13 06:56:16;;;;;;;8.33;7.47;;;20.80;99.90;;;;;;5034104;28;20169;-72
2021/08/13 06:58:42;;;;;;;9.00;7.20;;;20.90;99.90;;;;;;5037018;28;20168;-72
2021/08/13 07:01:07;;;;;;;11.73;9.27;;;21.00;99.90;;;;;;5035551;28;20169;-72
2021/08/13 07:03:33;;;;;;;8.60;7.60;;;21.10;99.90;;;;;;5043883;28;20172;-72
2021/08/13 07:05:58;;;;;;;9.77;7.60;;;21.20;99.90;;;;;;5043988;28;20184;-72
2021/08/13 07:08:24;;;;;;;11.47;6.70;;;21.30;99.90;;;;;;5045553;28;20191;-72
2021/08/13 07:10:49;;;;;;;8.20;6.50;;;21.40;99.90;;;;;;5059504;28;20176;-72
2021/08/13 07:13:15;;;;;;;15.10;7.40;;;21.50;99.90;;;;;;5033933;28;20192;-72
2021/08/13 07:15:40;;;;;;;8.70;6.83;;;21.60;99.90;;;;;;5038963;28;20200;-72
2021/08/13 07:18:06;;;;;;;8.60;7.00;;;21.70;99.90;;;;;;5042156;28;20494;-72
2021/08/13 07:20:31;;;;;;;9.17;6.73;;;21.80;99.90;;;;;;5041541;28;20185;-72
2021/08/13 07:22:57;;;;;;;7.70;6.60;;;22.00;99.90;;;;;;5074611;28;20198;-72
2021/08/13 07:25:23;;;;;;;8.90;6.33;;;22.10;99.90;;;;;;5058084;28;20512;-72
2021/08/13 07:27:48;;;;;;;6.77;5.87;;;22.20;99.90;;;;;;5034051;28;20542;-72
2021/08/13 07:30:15;;;;;;;9.47;5.77;;;22.30;99.90;;;;;;5035732;28;20184;-72
2021/08/13 07:32:42;;;;;;;6.37;5.70;;;22.40;99.90;;;;;;5038766;28;20212;-72
2021/08/13 07:35:08;;;;;;;6.80;5.97;;;22.40;99.90;;;;;;5052240;28;20470;-72
2021/08/13 07:37:34;;;;;;;12.00;6.37;;;22.60;99.90;;;;;;5044931;28;20522;-72
2021/08/13 07:39:59;;;;;;;8.27;6.60;;;22.70;99.90;;;;;;5034319;28;20502;-73
2021/08/13 07:42:26;;;;;;;8.53;6.10;;;22.90;99.90;;;;;;5037286;28;20655;-72
2021/08/13 07:44:52;;;;;;;10.13;7.83;;;23.10;99.90;;;;;;5044851;28;20268;-72
2021/08/13 07:47:18;;;;;;;7.17;5.33;;;23.30;99.90;;;;;;5034653;28;20769;-72
2021/08/13 07:49:43;;;;;;;8.07;5.77;;;23.60;99.90;;;;;;5039327;28;20430;-72
2021/08/13 07:52:09;;;;;;;8.00;5.40;;;24.10;99.90;;;;;;5043549;28;20173;-72
2021/08/13 07:54:34;;;;;;;10.80;6.67;;;24.70;99.90;;;;;;5037758;28;20255;-72
2021/08/13 07:57:01;;;;;;;7.73;5.97;;;25.40;99.90;;;;;;5036311;28;20177;-72
2021/08/13 07:59:26;;;;;;;10.83;6.43;;;26.20;99.90;;;;;;5033113;28;20177;-73
2021/08/13 08:01:51;;;;;;;8.50;5.80;;;26.80;99.90;;;;;;5039140;28;20407;-73
2021/08/13 08:04:17;;;;;;;7.50;5.27;;;27.10;99.90;;;;;;5053141;28;20176;-73
2021/08/13 08:06:42;;;;;;;8.63;5.30;;;27.30;99.90;;;;;;5035984;28;20276;-73
2021/08/13 08:09:08;;;;;;;7.33;6.50;;;27.40;99.90;;;;;;5032213;28;20176;-73
2021/08/13 08:11:34;;;;;;;10.03;5.80;;;27.40;99.90;;;;;;5034181;28;20248;-73
2021/08/13 08:13:59;;;;;;;9.43;6.60;;;27.40;99.90;;;;;;5033610;28;20189;-73
2021/08/13 08:16:25;;;;;;;8.80;6.60;;;27.50;99.90;;;;;;5033354;28;20180;-73
2021/08/13 08:18:50;;;;;;;7.30;5.27;;;27.50;99.90;;;;;;5033556;28;20164;-73
2021/08/13 08:21:16;;;;;;;7.23;5.93;;;27.50;99.90;;;;;;5033678;28;20171;-73
2021/08/13 08:23:42;;;;;;;6.43;4.93;;;27.60;99.90;;;;;;5033435;28;20193;-73
2021/08/13 08:26:07;;;;;;;10.47;5.83;;;27.80;99.90;;;;;;5033479;28;20263;-73
2021/08/13 08:28:33;;;;;;;9.20;7.23;;;28.00;99.90;;;;;;5052127;28;20226;-73
2021/08/13 08:30:58;;;;;;;9.77;6.60;;;28.10;99.90;;;;;;5049000;28;20180;-73
2021/08/13 08:33:24;;;;;;;10.83;7.80;;;28.20;99.90;;;;;;5033507;28;20271;-74
2021/08/13 08:35:49;;;;;;;9.50;6.50;;;28.30;99.90;;;;;;5033788;28;20151;-73
2021/08/13 08:38:15;;;;;;;8.67;6.70;;;28.60;99.90;;;;;;5033285;28;20168;-74
2021/08/13 08:40:42;;;;;;;14.63;6.97;;;29.10;99.90;;;;;;5033193;28;20193;-75
2021/08/13 08:43:09;;;;;;;9.77;7.00;;;29.50;99.90;;;;;;5032985;28;20247;-75
2021/08/13 08:45:37;;;;;;;11.27;7.23;;;29.60;98.80;;;;;;5052566;28;20501;-75
2021/08/13 08:48:06;;;;;;;12.13;7.90;;;29.30;99.10;;;;;;5053652;28;20387;-76
2021/08/13 08:50:34;;;;;;;7.00;5.60;;;29.10;99.50;;;;;;5051325;28;20515;-75
2021/08/13 08:53:02;;;;;;;12.37;8.23;;;28.90;99.90;;;;;;5053291;28;20387;-75
2021/08/13 08:55:28;;;;;;;10.80;7.70;;;28.70;99.90;;;;;;5052899;28;20442;-76
2021/08/13 08:57:54;;;;;;;11.60;8.47;;;28.50;99.90;;;;;;5052900;28;20753;-76
2021/08/13 09:00:21;;;;;;;10.50;7.57;;;28.40;99.90;;;;;;5052379;28;20159;-76
2021/08/13 09:02:47;;;;;;;11.73;7.20;;;28.50;99.90;;;;;;5036057;28;20622;-76
2021/08/13 09:05:13;;;;;;;12.87;7.90;;;28.50;99.90;;;;;;5042366;28;20779;-75
2021/08/13 09:07:40;;;;;;;11.47;8.17;;;28.70;99.90;;;;;;5053463;28;20171;-75
2021/08/13 09:10:07;;;;;;;9.77;6.80;;;28.70;99.70;;;;;;5052496;28;20772;-76
2021/08/13 09:12:34;;;;;;;10.97;9.40;;;28.40;99.50;;;;;;5047755;28;20422;-75
2021/08/13 09:15:00;;;;;;;12.93;8.50;;;28.10;99.00;;;;;;5053108;28;20446;-75
2021/08/13 09:17:30;;;;;;;11.30;8.87;;;27.90;99.90;;;;;;5051470;28;20431;-75
2021/08/13 09:19:56;;;;;;;9.63;5.83;;;27.70;99.90;;;;;;5052340;28;20183;-75
2021/08/13 09:22:22;;;;;;;10.57;6.83;;;27.90;99.90;;;;;;5048081;28;20501;-75
2021/08/13 09:24:50;;;;;;;10.60;7.93;;;28.10;99.90;;;;;;5037465;28;20173;-75
2021/08/13 09:27:19;;;;;;;13.80;9.30;;;28.20;99.90;;;;;;5043083;28;20426;-75
2021/08/13 09:32:57;;;;;;;12.23;8.20;;;27.90;99.90;;;;;;5069690;28;20973;-72
2021/08/13 09:35:34;;;;;;;13.47;9.03;;;27.60;99.90;;;;;;5058961;28;20485;-72
2021/08/13 09:38:01;;;;;;;12.77;8.40;;;27.30;99.90;;;;;;5049594;28;20468;-72
2021/08/13 09:40:26;;;;;;;14.80;10.70;;;27.10;99.90;;;;;;5059399;28;20926;-72
2021/08/13 09:43:01;;;;;;;15.40;9.63;;;27.10;99.90;;;;;;5063932;28;20418;-72
2021/08/13 09:45:26;;;;;;;15.37;10.90;;;27.10;99.90;;;;;;5063814;28;20175;-72
2021/08/13 09:47:52;;;;;;;17.17;11.33;;;27.00;99.90;;;;;;5068940;28;20382;-72
2021/08/13 09:50:32;;;;;;;22.10;13.27;;;26.90;99.90;;;;;;5049453;28;20225;-72
2021/08/13 09:53:05;;;;;;;20.60;13.30;;;26.80;99.90;;;;;;5063224;28;20747;-72
2021/08/13 09:55:31;;;;;;;17.60;13.33;;;26.80;99.90;;;;;;5069198;28;20449;-72
2021/08/13 09:57:57;;;;;;;16.67;11.83;;;27.00;99.90;;;;;;5069291;28;20406;-72
2021/08/13 10:00:22;;;;;;;13.87;9.13;;;27.20;99.90;;;;;;5064915;28;20676;-72
2021/08/13 10:02:48;;;;;;;17.30;11.30;;;27.50;99.90;;;;;;5048904;28;20153;-72
2021/08/13 10:05:23;;;;;;;15.20;10.53;;;27.60;99.90;;;;;;5049026;28;20172;-72
2021/08/13 10:10:29;;;;;;;13.40;9.63;;;27.60;99.90;;;;;;5050021;28;20596;-72
2021/08/13 10:12:56;;;;;;;20.73;12.00;;;27.70;99.90;;;;;;5045023;28;20435;-72
2021/08/13 10:15:43;;;;;;;17.80;10.17;;;27.80;99.90;;;;;;5034961;28;20473;-72
2021/08/13 10:18:11;;;;;;;14.60;10.33;;;27.90;99.90;;;;;;5037692;28;20814;-72
2021/08/13 10:20:42;;;;;;;15.10;9.53;;;28.00;99.90;;;;;;5042211;28;20792;-72
2021/08/13 10:23:09;;;;;;;13.03;9.63;;;28.00;99.90;;;;;;5030715;28;20769;-72
2021/08/13 10:25:35;;;;;;;13.37;9.47;;;28.00;99.90;;;;;;5039538;28;20445;-72
2021/08/13 10:28:01;;;;;;;14.93;10.60;;;28.00;99.90;;;;;;5043988;28;20423;-72
2021/08/13 10:30:26;;;;;;;13.53;8.07;;;28.00;99.90;;;;;;5040822;28;20922;-72
2021/08/13 10:32:56;;;;;;;13.27;9.00;;;27.90;99.90;;;;;;5043810;28;20226;-72
2021/08/13 10:35:26;;;;;;;13.33;9.13;;;27.90;99.90;;;;;;5043035;28;20766;-73
2021/08/13 10:37:52;;;;;;;11.23;9.30;;;27.80;99.90;;;;;;5049236;28;20422;-73
2021/08/13 10:40:18;;;;;;;13.47;9.53;;;27.70;99.90;;;;;;5048411;28;20399;-73
2021/08/13 10:42:46;;;;;;;11.50;8.70;;;27.50;99.90;;;;;;5049635;28;20175;-73
2021/08/13 10:45:23;;;;;;;12.97;9.17;;;27.40;99.90;;;;;;5048021;28;20661;-73
2021/08/13 10:48:10;;;;;;;13.53;10.20;;;27.30;99.90;;;;;;5048298;28;20391;-73
2021/08/13 10:50:37;;;;;;;14.70;9.77;;;27.20;99.90;;;;;;5035142;28;20418;-73
2021/08/13 10:53:03;;;;;;;10.13;7.37;;;27.10;99.90;;;;;;5038780;28;20504;-73
2021/08/13 10:55:51;;;;;;;11.30;8.30;;;27.10;99.90;;;;;;5047491;28;20391;-73
2021/08/13 11:14:46;;;;;;;7.80;5.10;;;27.10;99.90;;;;;;5069801;28;21059;-72
2021/08/13 11:20:10;;;;;;;7.50;6.20;;;27.20;99.90;;;;;;5069899;28;20512;-72
2021/08/13 11:22:37;;;;;;;11.60;8.53;;;27.20;99.90;;;;;;5069232;28;20378;-72
2021/08/13 11:25:05;;;;;;;15.73;7.57;;;27.10;99.90;;;;;;5053079;28;20412;-72
2021/08/13 11:27:31;;;;;;;8.10;6.73;;;27.00;99.90;;;;;;5058575;28;20734;-72
2021/08/13 11:29:57;;;;;;;10.10;6.67;;;26.90;99.90;;;;;;5069509;28;20562;-72
2021/08/13 11:42:53;;;;;;;7.83;5.57;;;26.90;99.90;;;;;;5094596;27;20523;-73
2021/08/13 11:45:20;;;;;;;7.83;5.10;;;26.60;99.90;;;;;;5089458;28;20405;-73
2021/08/13 11:47:48;;;;;;;7.00;5.50;;;26.60;99.90;;;;;;5071226;28;20421;-73
2021/08/13 11:50:14;;;;;;;6.40;5.47;;;26.70;99.90;;;;;;5069559;28;20387;-73
2021/08/13 11:52:48;;;;;;;6.77;5.10;;;26.80;99.90;;;;;;5069865;28;20911;-73
2021/08/13 11:58:00;;;;;;;4.87;4.23;;;26.80;99.90;;;;;;5069865;28;20505;-72
2021/08/13 12:00:27;;;;;;;5.33;4.80;;;26.80;99.90;;;;;;5069923;28;20421;-72
2021/08/13 12:05:38;;;;;;;4.63;4.23;;;26.90;99.90;;;;;;5070283;28;20516;-71
2021/08/13 12:08:08;;;;;;;5.50;4.60;;;26.90;99.90;;;;;;5061905;28;20418;-71
2021/08/13 12:10:35;;;;;;;7.33;4.40;;;26.90;99.90;;;;;;5049815;28;20419;-71
2021/08/13 12:13:09;;;;;;;5.97;4.00;;;26.80;99.90;;;;;;5049525;28;20414;-71
2021/08/13 12:15:37;;;;;;;4.17;3.70;;;26.80;99.90;;;;;;5049446;28;20908;-71
2021/08/13 12:18:04;;;;;;;4.80;3.50;;;26.90;99.90;;;;;;5049643;28;20814;-71
2021/08/13 12:20:31;;;;;;;4.70;4.20;;;26.90;99.90;;;;;;5049581;28;20442;-71
2021/08/13 12:23:06;;;;;;;4.47;3.37;;;27.00;99.90;;;;;;5049655;28;20929;-71
2021/08/13 12:25:34;;;;;;;3.57;3.27;;;27.10;99.90;;;;;;5050632;28;20455;-71
2021/08/13 12:28:01;;;;;;;3.33;3.03;;;27.20;99.90;;;;;;5049460;28;20410;-71
2021/08/13 12:30:26;;;;;;;3.03;2.73;;;27.20;99.90;;;;;;5049500;28;20403;-71
2021/08/13 12:32:52;;;;;;;4.50;3.60;;;27.30;99.90;;;;;;5049355;28;20904;-71
2021/08/13 12:35:19;;;;;;;3.60;2.97;;;27.30;99.50;;;;;;5049140;28;20164;-72
2021/08/13 12:37:45;;;;;;;3.13;2.10;;;27.20;98.60;;;;;;5048614;28;20490;-72
2021/08/13 12:40:13;;;;;;;4.60;3.00;;;27.30;99.90;;;;;;5049092;28;20493;-72
2021/08/13 12:42:40;;;;;;;3.33;2.90;;;27.30;99.40;;;;;;5056603;28;20180;-72
2021/08/13 12:45:10;;;;;;;3.40;2.27;;;27.30;97.90;;;;;;5068952;28;20508;-72
2021/08/13 12:47:36;;;;;;;3.03;2.73;;;27.20;99.20;;;;;;5069055;28;20848;-72
2021/08/13 12:50:03;;;;;;;4.37;3.40;;;27.30;99.90;;;;;;5069035;28;20419;-72
2021/08/13 12:52:28;;;;;;;2.90;2.57;;;27.30;98.90;;;;;;5069406;28;20397;-72
2021/08/13 12:54:55;;;;;;;2.80;2.47;;;27.30;99.60;;;;;;5068546;28;20509;-71
2021/08/13 12:57:23;;;;;;;3.20;2.33;;;27.40;99.60;;;;;;5068638;28;20179;-71
2021/08/13 13:00:00;;;;;;;3.13;2.07;;;27.40;98.70;;;;;;5066962;28;20496;-71
2021/08/13 13:02:28;;;;;;;2.37;2.17;;;27.30;97.70;;;;;;5068740;28;20909;-71
2021/08/13 13:05:05;;;;;;;2.23;2.03;;;27.30;98.20;;;;;;5068488;28;20978;-71
2021/08/13 13:10:16;;;;;;;3.17;2.33;;;27.10;98.10;;;;;;5110369;27;20502;-72
2021/08/13 13:12:42;;;;;;;2.60;2.07;;;27.10;98.30;;;;;;5095365;28;20744;-72
2021/08/13 13:15:27;;;;;;;3.87;3.00;;;27.10;99.10;;;;;;5090228;28;20404;-72
2021/08/13 13:17:57;;;;;;;3.47;2.30;;;27.10;99.00;;;;;;5090499;28;20435;-72
2021/08/13 13:20:23;;;;;;;2.50;2.30;;;27.10;99.90;;;;;;5090154;28;20396;-72
2021/08/13 13:23:10;;;;;;;3.33;2.17;;;27.10;99.60;;;;;;5090085;28;20393;-72
2021/08/13 13:25:41;;;;;;;1.93;1.43;;;27.10;97.60;;;;;;5088786;28;20152;-72
2021/08/13 13:28:07;;;;;;;3.10;2.80;;;27.10;98.10;;;;;;5089708;28;20445;-72
2021/08/13 13:33:22;;;;;;;2.10;1.80;;;26.90;99.60;;;;;;5061355;28;21042;-72
2021/08/13 13:35:55;;;;;;;1.70;1.60;;;26.90;99.20;;;;;;5050465;28;20399;-72
2021/08/13 13:38:26;;;;;;;3.47;2.53;;;26.80;98.70;;;;;;5049950;28;20395;-72